Time;durP1;ratioP1;P1;durP2;ratioP2;P2;SDS_P1;SDS_P2;PMS_P1;PMS_P2;Temp;Humidity;BMP_temperature;BMP_pressure;BME280_temperature;BME280_humidity;BME280_pressure;Samples;Min_cycle;Max_cycle;Signal;HPM_P1;HPM_P2
2022/05/13 00:00:40;;;;;;;7.63;3.17;;;;;;;11.18;65.94;100594.25;3405769;83;98955;-82
2022/05/13 00:05:41;;;;;;;9.27;3.87;;;;;;;11.15;66.50;100589.52;3420870;84;98823;-81
2022/05/13 00:10:43;;;;;;;8.17;3.07;;;;;;;11.11;66.73;100587.30;3417994;83;98688;-81
2022/05/13 00:15:44;;;;;;;10.00;3.97;;;;;;;11.03;66.87;100586.22;3421579;86;98701;-82
2022/05/13 00:20:45;;;;;;;8.37;4.03;;;;;;;10.97;66.99;100580.84;3412163;83;99126;-82
2022/05/13 00:25:46;;;;;;;11.03;3.80;;;;;;;10.89;66.90;100588.22;3421988;83;98811;-82
2022/05/13 00:30:48;;;;;;;10.30;3.80;;;;;;;10.83;67.11;100587.53;3413898;83;109093;-82
2022/05/13 00:35:49;;;;;;;8.07;3.67;;;;;;;10.73;67.43;100594.50;3413114;83;99181;-82
2022/05/13 00:40:50;;;;;;;12.00;4.30;;;;;;;10.60;67.70;100588.23;3419955;84;98788;-80
2022/05/13 00:45:51;;;;;;;8.47;4.13;;;;;;;10.51;67.93;100581.62;3416055;85;99112;-82
2022/05/13 00:50:52;;;;;;;9.53;4.40;;;;;;;10.42;68.16;100577.57;3406949;83;99108;-81
2022/05/13 00:55:54;;;;;;;8.73;3.90;;;;;;;10.32;68.45;100569.38;3425518;83;99136;-82
2022/05/13 01:00:55;;;;;;;9.60;4.58;;;;;;;10.22;68.46;100576.90;3382343;85;99360;-82
2022/05/13 01:06:00;;;;;;;10.10;4.03;;;;;;;10.15;69.07;100579.52;3388559;84;99155;-82
2022/05/13 01:11:05;;;;;;;11.70;4.80;;;;;;;10.00;69.20;100581.02;3407044;84;99113;-82
2022/05/13 01:16:06;;;;;;;14.33;7.37;;;;;;;9.90;69.66;100581.08;3411509;85;98538;-82
2022/05/13 01:21:13;;;;;;;11.97;6.43;;;;;;;9.72;70.47;100573.70;3421941;82;98749;-82
2022/05/13 01:26:16;;;;;;;;;;;;;;;9.72;70.47;100573.70;3432595;85;98722;-81
2022/05/13 01:31:32;;;;;;;10.48;5.33;;;;;;;9.62;72.58;100579.80;3422450;85;84691;-82
2022/05/13 01:36:34;;;;;;;9.77;5.70;;;;;;;9.54;70.81;100578.88;3405432;82;99033;-82
2022/05/13 01:41:35;;;;;;;8.90;4.85;;;;;;;9.45;71.10;100574.80;3415837;85;98502;-82
2022/05/13 01:46:36;;;;;;;11.93;5.37;;;;;;;9.38;71.14;100578.80;3430984;85;26779;-82
2022/05/13 01:51:37;;;;;;;11.23;5.20;;;;;;;9.31;71.34;100569.03;3421923;84;98950;-82
2022/05/13 01:56:38;;;;;;;10.03;5.30;;;;;;;9.24;72.22;100570.29;3436186;82;98881;-81
2022/05/13 02:01:39;;;;;;;11.97;5.53;;;;;;;9.18;72.31;100561.57;3423167;84;98696;-82
2022/05/13 02:06:40;;;;;;;13.37;5.63;;;;;;;9.11;72.35;100553.78;3434281;84;98609;-81
2022/05/13 02:11:41;;;;;;;10.40;5.43;;;;;;;9.05;72.14;100559.35;3420561;83;98765;-82
2022/05/13 02:16:42;;;;;;;10.80;5.57;;;;;;;8.99;72.56;100544.34;3426006;84;25792;-82
2022/05/13 02:21:44;;;;;;;13.83;5.97;;;;;;;8.93;72.79;100540.27;3415378;85;98970;-82
2022/05/13 02:26:45;;;;;;;11.77;6.43;;;;;;;8.86;73.18;100543.70;3433856;84;98887;-82
2022/05/13 02:31:46;;;;;;;11.50;6.77;;;;;;;8.80;73.46;100538.28;3421789;85;99069;-82
2022/05/13 02:36:47;;;;;;;10.53;6.37;;;;;;;8.74;73.64;100541.67;3441632;83;98649;-82
2022/05/13 02:41:49;;;;;;;12.60;7.23;;;;;;;8.67;73.54;100537.42;3425019;85;98665;-82
2022/05/13 02:46:50;;;;;;;12.37;7.23;;;;;;;8.62;74.01;100535.73;3433412;85;26206;-82
2022/05/13 02:51:51;;;;;;;13.37;6.97;;;;;;;8.56;74.00;100535.81;3419994;84;98917;-82
2022/05/13 02:56:52;;;;;;;12.53;6.37;;;;;;;8.50;74.57;100527.66;3397330;84;98498;-82
2022/05/13 03:01:54;;;;;;;14.47;7.53;;;;;;;8.44;74.72;100533.78;3418481;83;98906;-81
2022/05/13 03:06:55;;;;;;;14.17;6.57;;;;;;;8.40;74.95;100531.56;3404972;84;99032;-82
2022/05/13 03:11:56;;;;;;;14.00;7.23;;;;;;;8.35;75.14;100533.99;3423476;83;98699;-82
2022/05/13 03:16:57;;;;;;;10.60;5.70;;;;;;;8.31;75.70;100532.34;3430689;84;26139;-82
2022/05/13 03:21:58;;;;;;;12.60;6.27;;;;;;;8.29;75.29;100536.03;3427089;84;98938;-82
2022/05/13 03:27:00;;;;;;;11.33;6.50;;;;;;;8.25;75.42;100538.70;3431839;83;98485;-83
2022/05/13 03:32:01;;;;;;;11.43;5.67;;;;;;;8.22;76.10;100532.55;3423170;84;98730;-82
2022/05/13 03:37:02;;;;;;;11.30;5.37;;;;;;;8.19;75.77;100532.44;3424732;84;99032;-82
2022/05/13 03:42:04;;;;;;;9.73;5.10;;;;;;;8.17;75.97;100527.88;3422690;84;98871;-82
2022/05/13 03:47:05;;;;;;;8.77;5.17;;;;;;;8.14;76.62;100528.61;3432924;84;32853;-82
2022/05/13 03:52:07;;;;;;;9.43;4.55;;;;;;;8.15;76.76;100528.81;3439357;84;98583;-83
2022/05/13 03:57:09;;;;;;;11.97;6.10;;;;;;;8.14;77.02;100525.86;3451173;84;98572;-82
2022/05/13 04:02:10;;;;;;;8.05;4.62;;;;;;;8.16;77.33;100525.73;3437584;84;98821;-82
2022/05/13 04:17:49;;;;;;;13.50;5.70;;;;;;;8.27;77.85;100522.67;3442085;83;98928;-81
2022/05/13 04:22:50;;;;;;;16.40;7.07;;;;;;;8.33;77.81;100523.97;3443131;84;98374;-82
2022/05/13 04:27:51;;;;;;;15.30;7.03;;;;;;;8.40;79.94;100530.97;3461239;83;98493;-81
2022/05/13 04:32:52;;;;;;;14.73;6.97;;;;;;;8.54;80.29;100532.66;3445821;82;98764;-81
2022/05/13 04:37:53;;;;;;;13.40;6.43;;;;;;;8.73;80.30;100533.23;3442628;83;99171;-81
2022/05/13 04:42:55;;;;;;;13.83;6.63;;;;;;;8.99;80.25;100531.98;3448042;82;98786;-83
2022/05/13 04:48:15;;;;;;;12.50;6.50;;;;;;;9.29;80.32;100530.97;3437023;84;99301;-81
2022/05/13 04:53:25;;;;;;;14.30;6.33;;;;;;;9.60;79.53;100529.33;3427831;83;98676;-84
2022/05/13 04:58:27;;;;;;;14.43;5.25;;;;;;;9.91;79.04;100533.17;3362528;86;25825;-79
2022/05/13 05:03:30;;;;;;;22.90;7.78;;;;;;;10.23;78.24;100535.04;3417461;84;99143;-83
2022/05/13 05:08:31;;;;;;;13.72;5.58;;;;;;;10.53;77.87;100534.48;3407583;83;99086;-82
2022/05/13 05:13:37;;;;;;;34.10;7.40;;;;;;;10.85;77.48;100538.42;3418702;83;99369;-82
2022/05/13 05:18:40;;;;;;;9.63;4.83;;;;;;;11.14;77.93;100541.11;3419078;84;99681;-83
2022/05/13 05:23:44;;;;;;;9.55;4.42;;;;;;;11.53;77.51;100538.71;3390970;85;99177;-82
2022/05/13 05:28:46;;;;;;;10.28;4.95;;;;;;;12.12;75.44;100537.04;3404889;86;25864;-81
2022/05/13 05:33:47;;;;;;;10.93;4.10;;;;;;;12.73;74.72;100538.34;3364378;85;99375;-82
2022/05/13 05:38:48;;;;;;;8.63;4.30;;;;;;;13.38;73.26;100543.10;3408493;84;99189;-81
2022/05/13 05:43:51;;;;;;;8.17;3.30;;;;;;;14.15;71.87;100535.59;3402647;84;98943;-82
2022/05/13 05:48:52;;;;;;;9.50;3.72;;;;;;;14.91;70.21;100539.34;3396717;85;99262;-83
2022/05/13 05:59:12;;;;;;;8.38;3.42;;;;;;;16.47;65.56;100539.92;3284334;88;26099;-81
2022/05/13 06:04:13;;;;;;;9.80;4.23;;;;;;;17.28;63.57;100536.89;3366606;86;98953;-81
2022/05/13 06:09:15;;;;;;;8.87;3.93;;;;;;;17.99;60.68;100538.77;3308981;86;98643;-80
2022/05/13 06:14:16;;;;;;;6.47;3.00;;;;;;;18.51;59.36;100540.44;3366809;86;98970;-82
2022/05/13 06:19:17;;;;;;;9.17;3.47;;;;;;;19.01;56.85;100529.86;3351188;87;99320;-82
2022/05/13 06:24:18;;;;;;;13.20;3.33;;;;;;;19.45;55.78;100539.06;3347838;85;98870;-80
2022/05/13 06:29:22;;;;;;;7.17;4.23;;;;;;;19.81;54.56;100541.16;3369963;85;99362;-81
2022/05/13 06:34:23;;;;;;;6.85;3.98;;;;;;;20.02;52.91;100538.63;3336079;87;98854;-84
2022/05/13 06:39:24;;;;;;;20.10;4.87;;;;;;;20.30;51.69;100542.72;3339687;87;99087;-82
2022/05/13 06:44:25;;;;;;;10.20;4.33;;;;;;;20.46;51.18;100537.09;3328086;87;99024;-81
2022/05/13 06:49:26;;;;;;;10.60;3.77;;;;;;;20.63;50.37;100536.60;3346868;86;99002;-81
2022/05/13 06:54:27;;;;;;;12.35;4.00;;;;;;;20.98;50.89;100539.80;3388346;86;99120;-82
2022/05/13 06:59:29;;;;;;;12.98;4.53;;;;;;;21.16;49.47;100529.48;3393787;84;99013;-81
2022/05/13 07:04:30;;;;;;;12.25;3.80;;;;;;;21.28;49.20;100521.70;3390322;86;98841;-81
2022/05/13 07:09:34;;;;;;;11.30;4.97;;;;;;;21.41;49.29;100517.67;3397756;84;98952;-81
2022/05/13 07:14:36;;;;;;;8.03;4.67;;;;;;;21.54;47.99;100515.67;3352887;86;99590;-81
2022/05/13 07:19:37;;;;;;;12.03;4.55;;;;;;;21.46;47.30;100517.11;3372295;84;98924;-81
2022/05/13 07:24:38;;;;;;;9.65;3.70;;;;;;;21.37;47.27;100514.20;3385765;85;99428;-81
2022/05/13 07:29:40;;;;;;;12.65;3.52;;;;;;;21.40;47.50;100511.12;3391952;84;99332;-82
2022/05/13 07:34:44;;;;;;;11.13;3.87;;;;;;;21.52;46.46;100499.16;3397362;86;99711;-83
2022/05/13 07:45:06;;;;;;;6.67;2.70;;;;;;;21.14;45.66;100499.77;3383767;84;99052;-81
2022/05/13 07:50:14;;;;;;;13.60;3.80;;;;;;;21.28;46.56;100500.10;3386967;85;98957;-82
2022/05/13 07:55:16;;;;;;;11.68;4.22;;;;;;;21.28;44.88;100493.70;3384242;85;99410;-81
2022/05/13 08:00:26;;;;;;;7.12;2.52;;;;;;;21.21;44.42;100491.91;3373803;85;98348;-81
2022/05/13 08:05:32;;;;;;;6.70;2.20;;;;;;;21.30;45.11;100489.86;3376312;85;98940;-81
2022/05/13 08:10:34;;;;;;;7.45;2.58;;;;;;;21.57;44.59;100489.55;3388496;85;98686;-81
2022/05/13 08:15:36;;;;;;;11.33;3.08;;;;;;;21.97;43.94;100493.41;3387417;85;98936;-80
2022/05/13 08:20:37;;;;;;;7.15;2.47;;;;;;;22.54;42.78;100483.20;3389255;85;98899;-81
2022/05/13 08:25:39;;;;;;;6.60;2.58;;;;;;;22.90;41.86;100482.65;3382894;85;98721;-81
2022/05/13 08:30:42;;;;;;;4.90;2.13;;;;;;;23.20;41.50;100483.28;3386640;84;99167;-81
2022/05/13 08:35:48;;;;;;;9.68;3.05;;;;;;;23.61;40.79;100494.06;3389627;85;98908;-82
2022/05/13 08:41:01;;;;;;;9.93;3.20;;;;;;;23.76;39.53;100478.19;3397019;85;98772;-82
2022/05/13 08:46:37;;;;;;;7.92;4.05;;;;;;;23.93;39.16;100470.42;3366166;85;98753;-83
2022/05/13 08:57:44;;;;;;;12.75;3.15;;;;;;;25.19;38.98;100462.47;3400555;84;99039;-81
2022/05/13 09:02:48;;;;;;;;;;;;;;;25.69;37.57;100461.62;3389220;84;99251;-80
2022/05/13 09:07:51;;;;;;;9.60;2.80;;;;;;;26.37;34.97;100448.59;3395621;84;85292;-81
2022/05/13 09:13:09;;;;;;;14.75;3.45;;;;;;;26.57;36.15;100445.92;3376589;85;98940;-79
2022/05/13 09:18:37;;;;;;;6.97;3.30;;;;;;;26.52;35.69;100462.09;3401231;85;99133;-82
2022/05/13 09:23:40;;;;;;;7.50;3.05;;;;;;;26.24;34.87;100451.52;3396892;84;98925;-82
2022/05/13 09:29:05;;;;;;;8.10;3.20;;;;;;;26.06;34.98;100446.83;3407048;85;26194;-83
2022/05/13 09:34:27;;;;;;;12.25;3.92;;;;;;;26.02;34.69;100442.00;3395194;84;98961;-81
2022/05/13 09:39:39;;;;;;;12.15;3.60;;;;;;;25.96;35.75;100448.16;3401119;84;98817;-81
2022/05/13 09:44:41;;;;;;;15.10;4.55;;;;;;;25.87;34.82;100440.34;3385194;84;99050;-82
2022/05/13 09:49:49;;;;;;;12.50;3.92;;;;;;;25.37;34.84;100435.64;3397770;85;99049;-82
2022/05/13 09:54:52;;;;;;;10.70;3.27;;;;;;;25.08;35.77;100419.95;3355957;86;99093;-83
2022/05/13 10:00:08;;;;;;;8.08;3.62;;;;;;;24.96;35.70;100427.34;3393557;84;98984;-81
2022/05/13 10:05:27;;;;;;;13.88;4.45;;;;;;;24.68;35.05;100415.26;3392411;85;98628;-83
2022/05/13 10:16:22;;;;;;;7.75;3.42;;;;;;;25.16;36.21;100412.09;3372247;85;99282;-81
2022/05/13 10:21:30;;;;;;;12.43;3.77;;;;;;;25.30;36.05;100408.62;3379926;85;99164;-81
2022/05/13 10:26:38;;;;;;;8.63;3.47;;;;;;;25.56;35.42;100395.60;3397622;84;99388;-82
2022/05/13 10:31:43;;;;;;;9.93;2.90;;;;;;;25.59;36.21;100396.69;3384473;84;99357;-81
2022/05/13 10:37:06;;;;;;;7.93;2.70;;;;;;;25.53;36.20;100373.24;3394487;84;99304;-81
2022/05/13 10:42:25;;;;;;;8.28;3.27;;;;;;;25.75;36.21;100384.36;3394212;85;99017;-82
2022/05/13 10:47:48;;;;;;;11.63;2.80;;;;;;;25.55;35.48;100382.02;3391625;85;25860;-82
2022/05/13 10:53:45;;;;;;;8.68;2.90;;;;;;;25.49;35.88;100383.28;3347492;85;99175;-82
2022/05/13 10:59:23;;;;;;;11.63;3.00;;;;;;;25.25;35.71;100385.33;3322450;86;98650;-82
2022/05/13 11:05:00;;;;;;;10.10;3.30;;;;;;;24.97;35.94;100381.06;3328553;86;98885;-84
2022/05/13 11:10:12;;;;;;;5.72;2.62;;;;;;;24.60;35.72;100383.05;3321630;85;99220;-82
2022/05/13 11:15:37;;;;;;;26.45;4.08;;;;;;;24.45;36.67;100385.72;3314787;87;99108;-82
2022/05/13 11:20:49;;;;;;;18.60;4.00;;;;;;;24.45;37.33;100375.87;3320225;85;99041;-82
2022/05/13 11:26:12;;;;;;;10.53;2.80;;;;;;;24.62;37.21;100376.34;3315016;85;99051;-82
2022/05/13 11:31:33;;;;;;;6.12;2.85;;;;;;;24.36;37.03;100374.47;3311116;87;99325;-81
2022/05/13 11:36:49;;;;;;;9.93;3.33;;;;;;;24.14;37.15;100370.31;3325140;85;98891;-85
2022/05/13 11:42:11;;;;;;;;;;;;;;;24.17;36.58;100358.10;3320339;86;98956;-83
2022/05/13 11:47:38;;;;;;;11.03;3.47;;;;;;;24.20;35.95;100354.37;3326647;87;26222;-82
2022/05/13 11:52:44;;;;;;;7.15;2.62;;;;;;;24.19;36.42;100361.25;3348875;85;99217;-82
2022/05/13 11:57:49;;;;;;;8.60;2.85;;;;;;;24.24;36.96;100345.14;3395358;85;98667;-83
2022/05/13 12:02:55;;;;;;;7.83;3.12;;;;;;;24.72;35.72;100327.98;3390872;84;99046;-82
2022/05/13 12:08:16;;;;;;;20.52;3.90;;;;;;;25.00;35.72;100326.59;3402803;83;98775;-86
2022/05/13 12:13:47;;;;;;;9.58;3.20;;;;;;;25.09;33.87;100321.52;3390230;85;99416;-82
2022/05/13 12:19:21;;;;;;;35.95;8.08;;;;;;;25.30;33.88;100328.94;3395754;85;99239;-83
2022/05/13 12:24:25;;;;;;;7.07;2.90;;;;;;;25.08;33.48;100319.97;3379308;85;99383;-82
2022/05/13 12:29:46;;;;;;;11.63;3.10;;;;;;;24.98;33.66;100319.25;3408590;85;26137;-83
2022/05/13 12:40:30;;;;;;;6.95;2.87;;;;;;;24.88;33.54;100319.14;3401912;83;98741;-81
2022/05/13 12:46:03;;;;;;;6.20;2.62;;;;;;;24.78;35.37;100314.02;3393513;85;98918;-82
2022/05/13 12:51:15;;;;;;;6.55;2.65;;;;;;;24.75;35.73;100317.16;3379672;85;98836;-82
2022/05/13 12:56:27;;;;;;;8.18;3.05;;;;;;;24.64;35.69;100311.91;3328040;87;99234;-82
2022/05/13 13:01:30;;;;;;;9.13;3.00;;;;;;;24.62;34.52;100306.75;3328574;86;99171;-82
2022/05/13 13:06:47;;;;;;;6.22;2.70;;;;;;;24.44;36.03;100287.10;3316592;86;99184;-83
2022/05/13 13:11:53;;;;;;;8.45;2.52;;;;;;;24.75;34.57;100274.17;3335571;86;99172;-84
2022/05/13 13:17:06;;;;;;;9.28;3.67;;;;;;;24.82;34.49;100273.81;3325819;86;98642;-83
2022/05/13 13:22:14;;;;;;;8.05;2.70;;;;;;;24.69;34.26;100272.62;3338313;86;99029;-83
2022/05/13 13:27:22;;;;;;;9.75;3.33;;;;;;;24.55;35.05;100262.66;3341473;87;98991;-83
2022/05/13 13:32:23;;;;;;;6.33;2.77;;;;;;;24.57;35.23;100264.39;3321331;86;98978;-83
2022/05/13 13:37:30;;;;;;;7.33;3.20;;;;;;;24.75;33.60;100269.95;3345089;87;98945;-83
2022/05/13 13:42:33;;;;;;;5.37;2.60;;;;;;;24.59;33.41;100261.28;3337920;86;98953;-83
2022/05/13 13:47:42;;;;;;;8.63;2.98;;;;;;;24.49;34.48;100266.77;3339614;87;26314;-84
2022/05/13 13:52:44;;;;;;;8.73;2.95;;;;;;;24.42;34.53;100278.33;3352809;86;99065;-83
2022/05/13 13:58:22;;;;;;;9.50;3.47;;;;;;;24.34;34.69;100272.91;3388994;86;98994;-83
2022/05/13 14:03:27;;;;;;;9.08;3.60;;;;;;;24.40;34.79;100279.45;3388959;86;99137;-83
2022/05/13 14:08:31;;;;;;;8.28;3.72;;;;;;;24.38;34.75;100272.73;3376018;86;99230;-83
2022/05/13 14:13:46;;;;;;;9.75;3.25;;;;;;;24.36;35.09;100275.25;3387434;86;99206;-83
2022/05/13 14:18:54;;;;;;;7.08;2.98;;;;;;;24.19;34.52;100277.64;3387670;84;99021;-83
2022/05/13 14:24:06;;;;;;;14.38;4.55;;;;;;;24.05;35.00;100280.33;3388756;86;98747;-82
2022/05/13 14:29:12;;;;;;;23.40;5.22;;;;;;;23.88;35.35;100304.39;3397191;86;98890;-83
2022/05/13 14:34:20;;;;;;;14.55;4.53;;;;;;;23.69;36.38;100308.44;3377889;85;98824;-82
2022/05/13 14:44:50;;;;;;;17.12;5.03;;;;;;;23.21;37.74;100338.86;3385575;85;99043;-83
2022/05/13 14:50:01;;;;;;;13.70;4.53;;;;;;;22.72;38.42;100335.23;3389713;84;99039;-82
2022/05/13 14:55:08;;;;;;;15.32;5.28;;;;;;;22.52;39.03;100344.03;3366119;85;99094;-82
2022/05/13 15:00:23;;;;;;;12.03;4.25;;;;;;;22.32;39.25;100346.98;3373925;85;26473;-82
2022/05/13 15:05:46;;;;;;;13.57;5.87;;;;;;;22.03;39.60;100362.70;3392743;85;98804;-81
2022/05/13 15:10:47;;;;;;;11.00;4.17;;;;;;;21.77;39.98;100352.05;3355566;86;98901;-82
2022/05/13 15:15:48;;;;;;;10.03;4.65;;;;;;;21.42;40.53;100358.86;3391186;85;100488;-82
2022/05/13 15:20:49;;;;;;;8.00;3.92;;;;;;;21.20;40.81;100357.38;3388189;85;100540;-83
2022/05/13 15:25:51;;;;;;;11.30;3.58;;;;;;;21.18;41.24;100356.27;3394959;84;99004;-82
2022/05/13 15:30:55;;;;;;;10.33;3.13;;;;;;;21.17;41.60;100358.91;3389264;85;99690;-81
2022/05/13 15:35:58;;;;;;;8.05;2.90;;;;;;;21.07;41.71;100370.62;3396577;85;26699;-83
2022/05/13 15:41:01;;;;;;;10.55;3.00;;;;;;;20.81;41.21;100361.27;3381968;84;99443;-81
2022/05/13 15:46:03;;;;;;;5.72;2.30;;;;;;;20.61;40.65;100377.47;3394233;85;98821;-81
2022/05/13 15:56:37;;;;;;;10.65;2.30;;;;;;;20.24;40.33;100390.75;3392004;85;99144;-82
2022/05/13 16:01:41;;;;;;;7.42;2.35;;;;;;;19.95;40.21;100390.73;3358443;84;99065;-85
2022/05/13 16:06:43;;;;;;;13.88;2.00;;;;;;;19.68;40.83;100407.66;3392007;83;99267;-83
2022/05/13 16:11:47;;;;;;;10.05;2.70;;;;;;;19.55;41.13;100416.55;3394584;86;99365;-83
2022/05/13 16:16:56;;;;;;;7.85;2.75;;;;;;;19.47;41.06;100421.56;3398849;85;98849;-80
2022/05/13 16:22:05;;;;;;;5.47;2.10;;;;;;;19.48;41.59;100420.33;3385008;85;98938;-83
2022/05/13 16:27:11;;;;;;;10.50;2.45;;;;;;;19.46;41.53;100430.36;3393827;84;99187;-82
2022/05/13 16:32:12;;;;;;;6.62;2.40;;;;;;;19.28;41.12;100429.99;3361860;85;99389;-85
2022/05/13 16:42:32;;;;;;;8.10;2.40;;;;;;;19.15;41.96;100440.25;3388286;85;98919;-82
2022/05/13 16:47:33;;;;;;;4.93;1.80;;;;;;;19.08;42.22;100452.98;3396609;84;26553;-82
2022/05/13 16:52:34;;;;;;;9.47;2.57;;;;;;;18.99;42.91;100459.75;3391728;84;99005;-81
2022/05/13 16:57:37;;;;;;;7.97;2.30;;;;;;;18.90;43.12;100467.31;3398358;85;98239;-83
2022/05/13 17:02:38;;;;;;;4.80;2.90;;;;;;;18.82;43.42;100467.31;3398051;85;98907;-83
2022/05/13 17:07:39;;;;;;;11.40;3.33;;;;;;;18.76;43.71;100464.86;3374616;85;98909;-83
2022/05/13 17:18:00;;;;;;;12.00;2.35;;;;;;;18.59;43.83;100472.19;3387880;85;25883;-83
2022/05/13 17:23:01;;;;;;;10.58;2.70;;;;;;;18.49;44.32;100478.17;3387607;85;99320;-83
2022/05/13 17:28:06;;;;;;;6.73;2.00;;;;;;;18.37;45.36;100478.79;3395175;84;98864;-83
2022/05/13 17:33:07;;;;;;;8.23;2.65;;;;;;;18.11;45.35;100488.04;3389753;85;99483;-81
2022/05/13 17:38:08;;;;;;;8.30;2.50;;;;;;;17.94;45.63;100500.89;3395406;84;98815;-82
2022/05/13 17:43:12;;;;;;;10.13;2.15;;;;;;;17.81;46.07;100494.33;3400101;83;98835;-83
2022/05/13 17:48:16;;;;;;;5.28;2.60;;;;;;;17.64;46.23;100507.36;3400040;85;26666;-83
2022/05/13 17:53:22;;;;;;;7.77;2.27;;;;;;;17.44;46.63;100507.09;3391592;84;98918;-82
2022/05/13 17:58:24;;;;;;;7.00;2.00;;;;;;;17.31;46.99;100513.81;3399834;84;99014;-80
2022/05/13 18:03:25;;;;;;;6.55;1.87;;;;;;;17.19;47.52;100525.52;3389800;85;98884;-81
2022/05/13 18:08:26;;;;;;;6.13;2.50;;;;;;;17.10;47.49;100534.17;3400075;85;98819;-82
2022/05/13 18:13:27;;;;;;;7.00;2.70;;;;;;;17.00;48.28;100528.17;3373095;85;99433;-82
2022/05/13 18:18:31;;;;;;;6.33;2.77;;;;;;;16.86;49.04;100538.08;3397935;85;99140;-82
2022/05/13 18:23:36;;;;;;;7.55;2.50;;;;;;;16.70;49.27;100537.88;3380928;85;98917;-82
2022/05/13 18:28:39;;;;;;;9.75;2.98;;;;;;;16.59;49.66;100554.69;3381953;85;99176;-84
2022/05/13 18:33:41;;;;;;;7.03;2.67;;;;;;;16.40;50.05;100555.28;3389491;86;99139;-83
2022/05/13 18:38:42;;;;;;;10.43;3.05;;;;;;;16.26;50.41;100561.55;3396038;85;99267;-83
2022/05/13 18:49:06;;;;;;;9.48;2.80;;;;;;;15.98;52.63;100574.31;3394076;85;98912;-83
2022/05/13 18:54:08;;;;;;;10.95;2.95;;;;;;;15.80;52.49;100571.67;3388265;85;98482;-82
2022/05/13 18:59:11;;;;;;;11.22;2.80;;;;;;;15.64;53.04;100583.11;3396786;85;99288;-83
2022/05/13 19:04:13;;;;;;;14.43;2.83;;;;;;;15.57;53.04;100591.45;3390404;85;98920;-82
2022/05/13 19:09:14;;;;;;;6.28;2.47;;;;;;;15.47;53.72;100600.05;3394266;85;99537;-81
2022/05/13 19:14:15;;;;;;;9.43;3.42;;;;;;;15.40;53.34;100595.14;3394915;85;99306;-81
2022/05/13 19:19:16;;;;;;;10.35;2.92;;;;;;;15.30;53.44;100607.04;3391843;85;98788;-80
2022/05/13 19:24:18;;;;;;;9.30;2.97;;;;;;;15.18;53.15;100608.30;3363894;85;98578;-81
2022/05/13 19:29:18;;;;;;;7.27;2.80;;;;;;;15.09;53.15;100600.23;3403216;85;98573;-81
2022/05/13 19:34:21;;;;;;;9.83;2.53;;;;;;;14.99;53.19;100612.92;3393874;85;99063;-81
2022/05/13 19:39:25;;;;;;;10.73;3.50;;;;;;;14.88;53.38;100621.88;3397794;85;98833;-82
2022/05/13 19:44:26;;;;;;;7.45;2.60;;;;;;;14.80;53.17;100623.11;3392996;86;99077;-82
2022/05/13 19:49:27;;;;;;;7.83;2.17;;;;;;;14.70;53.32;100623.92;3404944;85;99375;-81
2022/05/13 19:54:28;;;;;;;9.57;2.53;;;;;;;14.61;53.53;100629.07;3390562;85;98885;-81
2022/05/13 19:59:30;;;;;;;9.17;2.53;;;;;;;14.55;53.65;100630.67;3397935;85;25816;-81
2022/05/13 20:04:31;;;;;;;6.97;2.17;;;;;;;14.50;53.90;100639.99;3385963;85;98672;-80
2022/05/13 20:14:52;;;;;;;10.80;2.62;;;;;;;14.41;54.52;100636.83;3382778;85;98860;-81
2022/05/13 20:25:13;;;;;;;11.78;3.25;;;;;;;14.35;55.05;100637.04;3383065;85;98861;-81
2022/05/13 20:30:16;;;;;;;13.53;5.08;;;;;;;14.31;55.55;100639.01;3360263;86;25952;-83
2022/05/13 20:35:17;;;;;;;8.07;3.17;;;;;;;14.27;55.57;100649.28;3354602;85;98913;-81
2022/05/13 20:40:19;;;;;;;6.70;3.03;;;;;;;14.21;55.89;100653.06;3427765;85;99185;-81
2022/05/13 20:45:20;;;;;;;7.17;2.67;;;;;;;14.14;56.22;100650.85;3356286;85;98891;-81
2022/05/13 20:50:23;;;;;;;8.33;2.60;;;;;;;14.06;56.28;100649.28;3363581;85;98879;-81
2022/05/13 20:55:24;;;;;;;8.68;3.12;;;;;;;13.96;56.70;100648.06;3414481;85;98893;-81
2022/05/13 21:00:27;;;;;;;6.30;2.33;;;;;;;13.84;57.30;100662.28;3388743;85;26216;-80
2022/05/13 21:05:38;;;;;;;8.63;2.52;;;;;;;13.72;57.59;100657.13;3377800;84;99730;-80
2022/05/13 21:10:31;;;;;;;7.05;2.33;;;;;;;13.58;58.13;100664.00;3351714;84;99116;-81
2022/05/13 21:15:33;;;;;;;6.73;2.80;;;;;;;13.45;58.53;100660.61;3344605;86;98816;-81
2022/05/13 21:20:37;;;;;;;8.40;2.70;;;;;;;13.29;59.26;100665.11;3362410;85;99041;-81
2022/05/13 21:25:40;;;;;;;8.38;2.90;;;;;;;13.14;59.75;100661.30;3393382;84;98830;-81
2022/05/13 21:30:41;;;;;;;11.43;3.67;;;;;;;12.98;60.39;100673.27;3334730;87;105407;-81
2022/05/13 21:41:01;;;;;;;7.62;3.25;;;;;;;12.64;61.46;100676.77;3392391;86;99005;-81
2022/05/13 21:46:03;;;;;;;5.80;2.33;;;;;;;12.49;61.69;100675.08;3392051;86;98706;-80
2022/05/13 21:51:04;;;;;;;9.90;2.37;;;;;;;12.37;61.80;100675.99;3368257;85;98772;-80
2022/05/13 21:56:05;;;;;;;7.90;2.43;;;;;;;12.24;62.36;100681.59;3381690;86;99166;-80
2022/05/13 22:01:08;;;;;;;8.63;2.70;;;;;;;12.09;62.67;100682.62;3378691;84;99320;-79
2022/05/13 22:06:08;;;;;;;4.83;2.35;;;;;;;11.97;62.96;100679.59;3384628;86;26193;-79
2022/05/13 22:11:10;;;;;;;8.53;2.87;;;;;;;11.85;63.15;100677.11;3367357;86;98741;-80
2022/05/13 22:16:11;;;;;;;8.13;2.40;;;;;;;11.71;63.63;100686.61;3379022;86;99108;-81
2022/05/13 22:21:12;;;;;;;7.03;2.60;;;;;;;11.56;64.11;100677.16;3359537;85;98956;-79
2022/05/13 22:26:13;;;;;;;8.93;3.03;;;;;;;11.44;64.59;100689.83;3384923;84;98939;-80
2022/05/13 22:31:14;;;;;;;7.73;2.40;;;;;;;11.35;65.11;100682.42;3379884;84;100074;-80
2022/05/13 22:36:16;;;;;;;6.77;2.57;;;;;;;11.20;65.56;100685.60;3363623;86;32973;-80
2022/05/13 22:41:18;;;;;;;7.63;2.77;;;;;;;11.06;66.16;100678.52;3372567;84;98908;-80
2022/05/13 22:46:19;;;;;;;8.73;2.90;;;;;;;10.97;66.20;100680.75;3361012;85;99280;-81
2022/05/13 22:51:21;;;;;;;11.17;3.40;;;;;;;10.88;66.65;100683.58;3376221;84;99595;-80
2022/05/13 22:56:22;;;;;;;8.87;2.47;;;;;;;10.79;66.67;100688.58;3368305;85;99049;-81
2022/05/13 23:01:23;;;;;;;9.80;2.83;;;;;;;10.72;66.94;100685.14;3359194;85;100085;-80
2022/05/13 23:11:43;;;;;;;8.08;2.87;;;;;;;10.63;67.41;100685.98;3343206;86;98454;-80
2022/05/13 23:16:44;;;;;;;7.03;2.67;;;;;;;10.59;68.66;100685.16;3313059;88;99056;-80
2022/05/13 23:21:46;;;;;;;9.43;3.70;;;;;;;10.59;68.78;100689.28;3308583;86;99349;-80
2022/05/13 23:26:47;;;;;;;9.30;3.07;;;;;;;10.60;69.29;100677.10;3368633;86;98807;-80
2022/05/13 23:31:48;;;;;;;8.93;3.43;;;;;;;10.66;69.89;100688.00;3359092;86;98891;-79
2022/05/13 23:36:49;;;;;;;6.97;2.93;;;;;;;10.74;70.28;100689.67;3389036;86;98866;-80
2022/05/13 23:41:50;;;;;;;5.93;2.57;;;;;;;10.83;70.38;100690.78;3403932;86;99043;-80
2022/05/13 23:46:54;;;;;;;7.50;2.53;;;;;;;10.96;70.66;100687.43;3393292;86;98689;-80
2022/05/13 23:51:54;;;;;;;8.55;2.83;;;;;;;11.11;70.76;100682.90;3397191;84;98988;-80
2022/05/13 23:56:55;;;;;;;8.00;3.17;;;;;;;11.21;71.10;100677.55;3399222;84;98869;-80
